Svartfoss — V2PR3 — position and weather

sailwx.info

Track history (hours):
 
Tides and Currents Weather Stations Pressure Air Temp Water Temp Dewpoint Dewpoint Depression Visibility Wind Speed Wind Dir Waves Ship Positions

Svartfoss

Last reported at 2014-Aug-01 21:21 UTC. Time now 2014-Aug-01 22:29 UTC.
Position N 70°40' E 023°40'.

Length 80 m; draft 5.5 m.

Type: Cargo ship. MMSI: 304882000.

Date/timePositionNaut miles runAvg speedWind from/ knotsBaromVisibWave heightAir tempDewpointWater temp
2014-Aug-01 21:21N 70°40' E 023°40'  
2014-Jul-30 16:33N 70°43' E 023°34'5 3.7
2014-Jul-30 15:05N 70°38' E 023°39'0 0.0
2014-Jul-30 14:33N 70°38' E 023°39'2 0.7
2014-Jul-30 11:25N 70°40' E 023°40'0 0.3
2014-Jul-30 10:29N 70°40' E 023°40'114 7.5
2014-Jul-29 19:23N 69°38' E 018°58'147 6.7
2014-Jul-28 21:30N 67°50' E 014°25'1514.2
2014-Jul-28 20:28N 67°35' E 014°19'1314.5
2014-Jul-28 19:33N 67°22' E 014°25'1514.8
2014-Jul-28 18:33N 67°10' E 014°04'3413.9
2014-Jul-28 16:09N 66°44' E 013°11'2213.8
2014-Jul-28 14:33N 66°22' E 012°58'8511.4
2014-Jul-28 07:04N 65°02' E 011°43'714.0
2014-Jul-28 06:33N 64°57' E 011°31'9 8.6
2014-Jul-28 05:34N 64°52' E 011°17'0 0.0
2014-Jul-28 04:34N 64°52' E 011°17'0 0.0
2014-Jul-28 03:34N 64°52' E 011°17'0 0.0
2014-Jul-28 02:34N 64°52' E 011°17'0 0.0
2014-Jul-28 01:34N 64°52' E 011°17'0 0.0
2014-Jul-28 00:34N 64°52' E 011°17'0 0.0
2014-Jul-27 23:33N 64°52' E 011°17'0 0.0
2014-Jul-27 22:34N 64°52' E 011°17'0 0.0
2014-Jul-27 21:34N 64°52' E 011°17'0 0.0
2014-Jul-27 20:34N 64°52' E 011°17'0 0.0
2014-Jul-27 19:34N 64°52' E 011°17'0 0.0
2014-Jul-27 18:33N 64°52' E 011°17'0 0.0
2014-Jul-27 17:34N 64°52' E 011°17'0 0.0
2014-Jul-27 16:34N 64°52' E 011°17'0 0.0
2014-Jul-27 15:34N 64°52' E 011°17'0 0.0
2014-Jul-27 14:33N 64°52' E 011°17'311 6.7
2014-Jul-25 16:28N 60°31' E 005°08'1011.0
2014-Jul-25 15:33N 60°23' E 005°19'0 0.0
2014-Jul-25 14:33N 60°23' E 005°19'0 0.0
2014-Jul-25 13:33N 60°23' E 005°19'5 5.2
2014-Jul-25 12:31N 60°19' E 005°12'21214.8
2014-Jul-24 22:10N 58°01' W 000°03'914.8
2014-Jul-24 21:32N 57°55' W 000°16'1414.7
2014-Jul-24 20:33N 57°46' W 000°37'1514.6
2014-Jul-24 19:33N 57°37' W 000°58'1514.8
2014-Jul-24 18:33N 57°28' W 001°20'1515.2
2014-Jul-24 17:33N 57°18' W 001°42'1615.0
2014-Jul-24 16:31N 57°08' W 002°04'1 0.6
2014-Jul-24 15:29N 57°09' W 002°05'0 0.0
2014-Jul-24 14:32N 57°09' W 002°05'0 0.0
2014-Jul-24 13:32N 57°09' W 002°05'0 0.0
2014-Jul-24 12:26N 57°09' W 002°05'0 0.0
2014-Jul-24 11:29N 57°09' W 002°05'0 0.0
2014-Jul-24 10:23N 57°09' W 002°05'0 0.0
2014-Jul-24 09:30N 57°09' W 002°05'3 1.1
2014-Jul-24 06:33N 57°08' W 001°60'4112.8
2014-Jul-24 03:22N 56°30' W 001°33'3115.1
2014-Jul-24 01:20N 56°02' W 001°13'1114.5
2014-Jul-24 00:33N 55°51' W 001°06'1514.6
2014-Jul-23 23:31N 55°37' W 000°57'1514.9
2014-Jul-23 22:32N 55°23' W 000°47'1615.3
2014-Jul-23 21:30N 55°09' W 000°37'1515.5
2014-Jul-23 20:32N 54°55' W 000°27'1515.8
2014-Jul-23 19:33N 54°41' W 000°17'1615.9
2014-Jul-23 18:33N 54°26' W 000°07'1615.6
2014-Jul-23 17:33N 54°11' E 000°03'1515.0
2014-Jul-23 16:33N 53°57' E 000°13'1414.5
2014-Jul-23 15:33N 53°44' E 000°22'1312.6
2014-Jul-23 14:33N 53°33' E 000°12'1010.2
2014-Jul-23 13:33N 53°35' W 000°04'0 0.3
2014-Jul-23 12:33N 53°35' W 000°04'0 0.0
2014-Jul-23 11:33N 53°35' W 000°04'0 0.0
2014-Jul-23 10:33N 53°35' W 000°04'0 0.0
2014-Jul-23 09:33N 53°35' W 000°04'0 0.0
2014-Jul-23 08:33N 53°35' W 000°04'0 0.0
2014-Jul-23 07:33N 53°35' W 000°04'0 0.0
2014-Jul-23 06:33N 53°35' W 000°04'0 0.0
2014-Jul-23 05:33N 53°35' W 000°04'0 0.0
2014-Jul-23 04:33N 53°35' W 000°04'0 0.0
2014-Jul-23 03:33N 53°35' W 000°04'0 0.0
2014-Jul-23 02:33N 53°35' W 000°04'0 0.0
2014-Jul-23 01:33N 53°35' W 000°04'0 0.0
2014-Jul-23 00:33N 53°35' W 000°04'0 0.0
2014-Jul-22 23:32N 53°35' W 000°04'0 0.0
2014-Jul-22 22:32N 53°35' W 000°04'0 0.0
2014-Jul-22 21:32N 53°35' W 000°04'  
Track history (hours):
 
Tides and Currents Weather Stations Pressure Air Temp Water Temp Dewpoint Dewpoint Depression Visibility Wind Speed Wind Dir Waves Ship Positions

Svartfoss

Last reported at 2014-Aug-01 21:21 UTC. Time now 2014-Aug-01 22:29 UTC.
Position N 70°40' E 023°40'.

Length 80 m; draft 5.5 m.

Type: Cargo ship. MMSI: 304882000.

Date/timePositionNaut miles runAvg speedWind from/ knotsBaromVisibWave heightAir tempDewpointWater temp
2014-Aug-01 21:21N 70°40' E 023°40'  
2014-Jul-30 16:33N 70°43' E 023°34'5 3.7
2014-Jul-30 15:05N 70°38' E 023°39'0 0.0
2014-Jul-30 14:33N 70°38' E 023°39'2 0.7
2014-Jul-30 11:25N 70°40' E 023°40'0 0.3
2014-Jul-30 10:29N 70°40' E 023°40'114 7.5
2014-Jul-29 19:23N 69°38' E 018°58'147 6.7
2014-Jul-28 21:30N 67°50' E 014°25'1514.2
2014-Jul-28 20:28N 67°35' E 014°19'1314.5
2014-Jul-28 19:33N 67°22' E 014°25'1514.8
2014-Jul-28 18:33N 67°10' E 014°04'3413.9
2014-Jul-28 16:09N 66°44' E 013°11'2213.8
2014-Jul-28 14:33N 66°22' E 012°58'8511.4
2014-Jul-28 07:04N 65°02' E 011°43'714.0
2014-Jul-28 06:33N 64°57' E 011°31'9 8.6
2014-Jul-28 05:34N 64°52' E 011°17'0 0.0
2014-Jul-28 04:34N 64°52' E 011°17'0 0.0
2014-Jul-28 03:34N 64°52' E 011°17'0 0.0
2014-Jul-28 02:34N 64°52' E 011°17'0 0.0
2014-Jul-28 01:34N 64°52' E 011°17'0 0.0
2014-Jul-28 00:34N 64°52' E 011°17'0 0.0
2014-Jul-27 23:33N 64°52' E 011°17'0 0.0
2014-Jul-27 22:34N 64°52' E 011°17'0 0.0
2014-Jul-27 21:34N 64°52' E 011°17'0 0.0
2014-Jul-27 20:34N 64°52' E 011°17'0 0.0
2014-Jul-27 19:34N 64°52' E 011°17'0 0.0
2014-Jul-27 18:33N 64°52' E 011°17'0 0.0
2014-Jul-27 17:34N 64°52' E 011°17'0 0.0
2014-Jul-27 16:34N 64°52' E 011°17'0 0.0
2014-Jul-27 15:34N 64°52' E 011°17'0 0.0
2014-Jul-27 14:33N 64°52' E 011°17'311 6.7
2014-Jul-25 16:28N 60°31' E 005°08'1011.0
2014-Jul-25 15:33N 60°23' E 005°19'0 0.0
2014-Jul-25 14:33N 60°23' E 005°19'0 0.0
2014-Jul-25 13:33N 60°23' E 005°19'5 5.2
2014-Jul-25 12:31N 60°19' E 005°12'21214.8
2014-Jul-24 22:10N 58°01' W 000°03'914.8
2014-Jul-24 21:32N 57°55' W 000°16'1414.7
2014-Jul-24 20:33N 57°46' W 000°37'1514.6
2014-Jul-24 19:33N 57°37' W 000°58'1514.8
2014-Jul-24 18:33N 57°28' W 001°20'1515.2
2014-Jul-24 17:33N 57°18' W 001°42'1615.0
2014-Jul-24 16:31N 57°08' W 002°04'1 0.6
2014-Jul-24 15:29N 57°09' W 002°05'0 0.0
2014-Jul-24 14:32N 57°09' W 002°05'0 0.0
2014-Jul-24 13:32N 57°09' W 002°05'0 0.0
2014-Jul-24 12:26N 57°09' W 002°05'0 0.0
2014-Jul-24 11:29N 57°09' W 002°05'0 0.0
2014-Jul-24 10:23N 57°09' W 002°05'0 0.0
2014-Jul-24 09:30N 57°09' W 002°05'3 1.1
2014-Jul-24 06:33N 57°08' W 001°60'4112.8
2014-Jul-24 03:22N 56°30' W 001°33'3115.1
2014-Jul-24 01:20N 56°02' W 001°13'1114.5
2014-Jul-24 00:33N 55°51' W 001°06'1514.6
2014-Jul-23 23:31N 55°37' W 000°57'1514.9
2014-Jul-23 22:32N 55°23' W 000°47'1615.3
2014-Jul-23 21:30N 55°09' W 000°37'1515.5
2014-Jul-23 20:32N 54°55' W 000°27'1515.8
2014-Jul-23 19:33N 54°41' W 000°17'1615.9
2014-Jul-23 18:33N 54°26' W 000°07'1615.6
2014-Jul-23 17:33N 54°11' E 000°03'1515.0
2014-Jul-23 16:33N 53°57' E 000°13'1414.5
2014-Jul-23 15:33N 53°44' E 000°22'1312.6
2014-Jul-23 14:33N 53°33' E 000°12'1010.2
2014-Jul-23 13:33N 53°35' W 000°04'0 0.3
2014-Jul-23 12:33N 53°35' W 000°04'0 0.0
2014-Jul-23 11:33N 53°35' W 000°04'0 0.0
2014-Jul-23 10:33N 53°35' W 000°04'0 0.0
2014-Jul-23 09:33N 53°35' W 000°04'0 0.0
2014-Jul-23 08:33N 53°35' W 000°04'0 0.0
2014-Jul-23 07:33N 53°35' W 000°04'0 0.0
2014-Jul-23 06:33N 53°35' W 000°04'0 0.0
2014-Jul-23 05:33N 53°35' W 000°04'0 0.0
2014-Jul-23 04:33N 53°35' W 000°04'0 0.0
2014-Jul-23 03:33N 53°35' W 000°04'0 0.0
2014-Jul-23 02:33N 53°35' W 000°04'0 0.0
2014-Jul-23 01:33N 53°35' W 000°04'0 0.0
2014-Jul-23 00:33N 53°35' W 000°04'0 0.0
2014-Jul-22 23:32N 53°35' W 000°04'0 0.0
2014-Jul-22 22:32N 53°35' W 000°04'0 0.0
2014-Jul-22 21:32N 53°35' W 000°04'  

Dump ship's entire track history